createdAt,value
2022-09-20T00:01:32.422Z,12.47
2022-09-20T00:04:05.357Z,12.60
2022-09-20T00:06:34.040Z,13.27
2022-09-20T00:09:03.050Z,12.63
2022-09-20T00:11:33.750Z,13.53
2022-09-20T00:14:02.930Z,11.67
2022-09-20T00:16:39.095Z,13.67
2022-09-20T00:19:08.987Z,14.87
2022-09-20T00:21:37.805Z,14.87
2022-09-20T00:24:05.962Z,12.80
2022-09-20T00:26:33.401Z,13.97
2022-09-20T00:29:01.643Z,15.80
2022-09-20T00:31:29.149Z,11.17
2022-09-20T00:34:16.847Z,14.27
2022-09-20T00:36:44.878Z,14.27
2022-09-20T00:39:14.560Z,11.20
2022-09-20T00:41:41.640Z,12.60
2022-09-20T00:44:48.836Z,14.53
2022-09-20T00:47:48.324Z,14.93
2022-09-20T00:50:38.018Z,12.10
2022-09-20T00:53:32.064Z,13.75
2022-09-20T00:56:16.284Z,11.23
2022-09-20T00:58:54.696Z,14.43
2022-09-20T01:01:21.888Z,11.80
2022-09-20T01:03:50.058Z,11.20
2022-09-20T01:06:17.956Z,13.10
2022-09-20T01:08:50.815Z,14.07
2022-09-20T01:11:18.206Z,11.93
2022-09-20T01:13:45.128Z,13.67
2022-09-20T01:16:15.168Z,12.57
2022-09-20T01:18:44.771Z,12.80
2022-09-20T01:21:12.542Z,14.03
2022-09-20T01:24:17.589Z,11.77
2022-09-20T01:27:25.750Z,13.83
2022-09-20T01:30:12.005Z,10.83
2022-09-20T01:33:31.242Z,14.40
2022-09-20T01:36:03.426Z,13.77
2022-09-20T01:38:37.719Z,10.80
2022-09-20T01:41:14.548Z,11.53
2022-09-20T01:44:06.847Z,11.57
2022-09-20T01:46:36.970Z,11.47
2022-09-20T01:49:47.003Z,12.20
2022-09-20T01:52:34.390Z,12.10
2022-09-20T01:55:25.078Z,12.10
2022-09-20T01:58:23.818Z,12.93
2022-09-20T02:01:21.420Z,14.50
2022-09-20T02:04:38.250Z,11.37
2022-09-20T02:07:52.387Z,15.03
2022-09-20T02:10:53.445Z,15.33
2022-09-20T02:13:39.913Z,15.20
2022-09-20T02:16:29.119Z,13.63
2022-09-20T02:19:46.785Z,14.57
2022-09-20T02:22:27.589Z,12.30
2022-09-20T02:25:20.497Z,12.37
2022-09-20T02:28:18.391Z,10.37
2022-09-20T02:31:04.323Z,13.07
2022-09-20T02:34:19.160Z,14.67
2022-09-20T02:37:14.206Z,12.57
2022-09-20T02:40:02.434Z,16.27
2022-09-20T02:42:47.565Z,13.47
2022-09-20T02:45:54.528Z,12.20
2022-09-20T02:48:34.544Z,13.30
2022-09-20T02:51:31.677Z,11.67
2022-09-20T02:54:22.207Z,12.13
2022-09-20T02:57:11.067Z,12.40
2022-09-20T03:00:32.384Z,15.30
2022-09-20T03:03:54.254Z,14.77
2022-09-20T03:06:40.053Z,13.13
2022-09-20T03:09:43.446Z,12.33
2022-09-20T03:12:38.159Z,10.43
2022-09-20T03:15:36.473Z,10.20
2022-09-20T03:18:20.299Z,9.10
2022-09-20T03:21:33.897Z,12.23
2022-09-20T03:24:30.904Z,11.30
2022-09-20T03:27:57.880Z,13.27
2022-09-20T03:30:48.589Z,11.97
2022-09-20T03:33:24.235Z,11.07
2022-09-20T03:36:36.201Z,12.47
2022-09-20T03:39:27.365Z,12.53
2022-09-20T03:42:25.379Z,13.20
2022-09-20T03:45:07.047Z,11.77
2022-09-20T03:48:37.042Z,11.47
2022-09-20T03:51:57.375Z,10.97
2022-09-20T03:55:05.664Z,13.57
2022-09-20T03:58:21.776Z,10.70
2022-09-20T04:01:25.154Z,9.97
2022-09-20T04:05:03.243Z,13.23
2022-09-20T04:07:54.717Z,13.00
2022-09-20T04:10:34.219Z,12.90
2022-09-20T04:13:32.123Z,11.07
2022-09-20T04:16:23.583Z,15.17
2022-09-20T04:19:14.229Z,11.63
2022-09-20T04:22:00.364Z,11.93
2022-09-20T04:25:04.367Z,12.23
2022-09-20T04:27:42.277Z,11.40
2022-09-20T04:30:30.279Z,19.00
2022-09-20T04:33:06.476Z,11.27
2022-09-20T04:35:57.601Z,15.30
2022-09-20T04:38:26.582Z,12.87
2022-09-20T04:41:37.949Z,10.93
2022-09-20T04:44:38.763Z,8.63
2022-09-20T04:47:32.968Z,13.23
2022-09-20T04:50:11.088Z,16.27
2022-09-20T04:53:22.780Z,14.27
2022-09-20T04:56:36.001Z,14.57
2022-09-20T04:59:10.731Z,13.47
2022-09-20T05:02:15.420Z,16.90
2022-09-20T05:05:20.207Z,18.23
2022-09-20T05:08:42.911Z,11.43
2022-09-20T05:11:42.400Z,18.57
2022-09-20T05:14:37.135Z,24.20
2022-09-20T05:17:36.154Z,14.67
2022-09-20T05:20:40.421Z,15.77
2022-09-20T05:23:21.032Z,20.10
2022-09-20T05:26:10.918Z,17.37
2022-09-20T05:29:10.192Z,15.37
2022-09-20T05:31:58.230Z,18.87
2022-09-20T05:34:44.886Z,17.67
2022-09-20T05:37:36.869Z,19.00
2022-09-20T05:40:31.937Z,9.60
2022-09-20T05:43:13.149Z,13.03
2022-09-20T05:46:14.117Z,11.63
2022-09-20T05:48:58.569Z,9.57
2022-09-20T05:52:28.178Z,13.53
2022-09-20T05:55:25.352Z,13.70
2022-09-20T05:58:38.850Z,12.27
2022-09-20T06:01:30.608Z,8.73
2022-09-20T06:04:23.760Z,9.67
2022-09-20T06:07:38.630Z,8.93
2022-09-20T06:10:25.765Z,14.17
2022-09-20T06:13:43.686Z,11.73
2022-09-20T06:16:25.506Z,18.58
2022-09-20T06:19:20.127Z,10.00
2022-09-20T06:21:58.137Z,13.13
2022-09-20T06:24:53.478Z,9.93
2022-09-20T06:27:33.730Z,11.63
2022-09-20T06:30:07.912Z,16.40
2022-09-20T06:32:34.823Z,15.10
2022-09-20T06:35:04.776Z,10.80
2022-09-20T06:38:17.639Z,12.90
2022-09-20T06:41:19.490Z,10.18
2022-09-20T06:43:48.541Z,8.47
2022-09-20T06:46:16.214Z,9.47
2022-09-20T06:48:43.300Z,8.33
2022-09-20T06:51:11.123Z,11.57
2022-09-20T06:53:41.042Z,13.05
2022-09-20T06:56:22.749Z,14.95
2022-09-20T06:58:49.819Z,16.20
2022-09-20T07:01:26.587Z,15.38
2022-09-20T07:03:56.460Z,18.08
2022-09-20T07:06:23.401Z,28.00
2022-09-20T07:08:50.332Z,24.83
2022-09-20T07:11:18.327Z,14.10
2022-09-20T07:13:49.938Z,20.95
2022-09-20T07:16:17.022Z,23.33
2022-09-20T07:18:44.132Z,16.38
2022-09-20T07:21:16.939Z,20.98
2022-09-20T07:23:46.087Z,13.32
2022-09-20T07:26:23.645Z,15.20
2022-09-20T07:28:51.218Z,19.40
2022-09-20T07:31:20.519Z,18.15
2022-09-20T07:33:47.576Z,10.73
2022-09-20T07:36:15.115Z,23.92
2022-09-20T07:38:43.092Z,19.35
2022-09-20T07:41:10.766Z,29.80
2022-09-20T07:43:37.945Z,25.95
2022-09-20T07:46:05.417Z,20.83
2022-09-20T07:48:36.823Z,28.85
2022-09-20T07:51:09.168Z,18.23
2022-09-20T07:53:36.956Z,22.45
2022-09-20T07:56:11.492Z,16.17
2022-09-20T07:58:38.871Z,15.93
2022-09-20T08:01:10.016Z,12.77
2022-09-20T08:03:37.363Z,21.80
2022-09-20T08:06:07.228Z,24.88
2022-09-20T08:08:36.917Z,22.77
2022-09-20T08:11:17.292Z,10.82
2022-09-20T08:14:07.049Z,9.60
2022-09-20T08:16:40.649Z,13.10
2022-09-20T08:19:08.140Z,11.13
2022-09-20T08:21:39.865Z,10.90
2022-09-20T08:24:07.056Z,11.48
2022-09-20T08:26:35.886Z,11.13
2022-09-20T08:29:05.822Z,9.93
2022-09-20T08:31:37.441Z,7.80
2022-09-20T08:34:06.912Z,11.80
2022-09-20T08:36:37.378Z,11.07
2022-09-20T08:42:39.159Z,11.48
2022-09-20T08:45:23.347Z,10.50
2022-09-20T08:48:05.699Z,10.68
2022-09-20T08:50:34.292Z,13.07
2022-09-20T08:53:05.839Z,11.02
2022-09-20T08:55:37.389Z,8.52
2022-09-20T08:58:08.515Z,9.50
2022-09-20T09:00:37.969Z,13.13
2022-09-20T09:03:13.513Z,8.55
2022-09-20T09:05:53.957Z,9.60
2022-09-20T09:08:28.650Z,7.35
2022-09-20T09:11:09.186Z,8.43
2022-09-20T09:14:01.588Z,12.45
2022-09-20T09:16:35.487Z,7.40
2022-09-20T09:19:34.454Z,7.65
2022-09-20T09:22:05.484Z,9.32
2022-09-20T09:24:32.775Z,8.50
2022-09-20T09:27:16.447Z,9.48
2022-09-20T09:29:55.511Z,9.45
2022-09-20T09:32:31.208Z,8.02
2022-09-20T09:35:29.720Z,8.90
2022-09-20T09:38:02.429Z,8.80
2022-09-20T09:40:31.780Z,8.35
2022-09-20T09:43:02.780Z,7.97
2022-09-20T09:45:39.318Z,9.82
2022-09-20T09:48:33.083Z,12.60
2022-09-20T09:51:20.320Z,8.15
2022-09-20T09:53:49.310Z,9.23
2022-09-20T09:56:41.069Z,11.38
2022-09-20T09:59:19.719Z,16.38
2022-09-20T10:02:04.367Z,7.50
2022-09-20T10:04:39.379Z,9.63
2022-09-20T10:07:39.229Z,11.68
2022-09-20T10:10:18.401Z,9.13
2022-09-20T10:12:59.445Z,15.65
2022-09-20T10:16:23.677Z,12.52
2022-09-20T10:19:24.860Z,7.47
2022-09-20T10:23:06.703Z,8.13
2022-09-20T10:26:09.923Z,7.47
2022-09-20T10:29:45.633Z,7.70
2022-09-20T10:32:22.418Z,9.20
2022-09-20T10:35:27.703Z,14.57
2022-09-20T10:38:26.285Z,6.28
2022-09-20T10:41:45.507Z,7.50
2022-09-20T10:44:18.893Z,5.28
2022-09-20T10:47:09.136Z,5.63
2022-09-20T10:49:39.409Z,5.35
2022-09-20T10:52:21.217Z,9.25
2022-09-20T10:55:04.138Z,5.18
2022-09-20T10:57:49.921Z,7.45
2022-09-20T11:00:58.052Z,8.20
2022-09-20T11:03:37.147Z,5.47
2022-09-20T11:06:20.151Z,9.23
2022-09-20T11:08:54.218Z,5.20
2022-09-20T11:11:43.810Z,7.78
2022-09-20T11:14:19.398Z,6.00
2022-09-20T11:16:47.931Z,4.85
2022-09-20T11:19:33.935Z,4.55
2022-09-20T11:22:11.805Z,8.43
2022-09-20T11:25:29.464Z,6.68
2022-09-20T11:28:20.613Z,7.38
2022-09-20T11:31:14.233Z,4.55
2022-09-20T11:33:49.271Z,4.30
2022-09-20T11:36:40.696Z,6.50
2022-09-20T11:39:37.789Z,11.93
2022-09-20T11:42:06.585Z,14.82
2022-09-20T11:44:42.435Z,6.10
2022-09-20T11:47:49.899Z,4.80
2022-09-20T11:50:34.670Z,4.00
2022-09-20T11:53:32.163Z,6.10
2022-09-20T11:56:20.573Z,9.00
2022-09-20T11:59:02.738Z,10.52
2022-09-20T12:01:41.789Z,10.90
2022-09-20T12:04:35.221Z,6.70
2022-09-20T12:07:31.037Z,8.23
2022-09-20T12:10:08.515Z,8.40
2022-09-20T12:12:47.048Z,9.38
2022-09-20T12:15:31.627Z,6.45
2022-09-20T12:17:58.432Z,4.95
2022-09-20T12:20:39.829Z,4.20
2022-09-20T12:23:38.317Z,11.48
2022-09-20T12:26:20.927Z,9.40
2022-09-20T12:28:55.673Z,6.15
2022-09-20T12:31:23.016Z,7.07
2022-09-20T12:34:10.502Z,4.60
2022-09-20T12:36:43.717Z,5.43
2022-09-20T12:39:16.191Z,2.88
2022-09-20T12:42:28.169Z,6.95
2022-09-20T12:45:17.543Z,5.25
2022-09-20T12:47:54.729Z,7.93
2022-09-20T12:50:41.453Z,4.35
2022-09-20T12:53:16.789Z,4.05
2022-09-20T12:56:02.055Z,4.47
2022-09-20T12:58:53.663Z,3.25
2022-09-20T13:01:23.505Z,2.60
2022-09-20T13:03:51.118Z,2.95
2022-09-20T13:06:19.222Z,4.20
2022-09-20T13:09:05.447Z,11.38
2022-09-20T13:11:44.920Z,2.50
2022-09-20T13:14:26.883Z,7.25
2022-09-20T13:17:22.105Z,9.20
2022-09-20T13:19:51.194Z,5.57
2022-09-20T13:22:28.324Z,4.82
2022-09-20T13:25:02.708Z,7.18
2022-09-20T13:27:40.239Z,3.92
2022-09-20T13:30:25.591Z,5.28
2022-09-20T13:32:52.967Z,7.25
2022-09-20T13:35:32.402Z,5.50
2022-09-20T13:38:08.801Z,5.32
2022-09-20T13:40:44.903Z,5.45
2022-09-20T13:43:49.405Z,5.97
2022-09-20T13:46:43.512Z,6.32
2022-09-20T13:49:24.532Z,6.47
2022-09-20T13:51:52.246Z,5.45
2022-09-20T13:54:33.358Z,9.35
2022-09-20T13:57:12.049Z,6.72
2022-09-20T13:59:46.712Z,5.63
2022-09-20T14:02:33.005Z,6.03
2022-09-20T14:05:03.709Z,7.18
2022-09-20T14:07:32.150Z,6.28
2022-09-20T14:10:00.020Z,7.40
2022-09-20T14:12:27.532Z,5.35
2022-09-20T14:14:55.099Z,6.28
2022-09-20T14:17:24.776Z,5.82
2022-09-20T14:19:54.656Z,3.85
2022-09-20T14:22:28.033Z,7.10
2022-09-20T14:25:14.088Z,8.10
2022-09-20T14:27:41.159Z,5.30
2022-09-20T14:30:35.242Z,11.32
2022-09-20T14:33:05.208Z,6.05
2022-09-20T14:35:32.522Z,5.63
2022-09-20T14:38:08.682Z,6.78
2022-09-20T14:40:45.772Z,5.55
2022-09-20T14:43:33.065Z,5.07
2022-09-20T14:46:12.226Z,7.32
2022-09-20T14:48:41.385Z,7.82
2022-09-20T14:51:22.227Z,7.03
2022-09-20T14:54:13.920Z,5.13
2022-09-20T14:56:49.256Z,2.78
2022-09-20T14:59:26.634Z,1.35
2022-09-20T15:02:15.346Z,2.40
2022-09-20T15:04:59.248Z,1.50
2022-09-20T15:07:26.717Z,2.88
2022-09-20T15:09:54.008Z,0.73
2022-09-20T15:12:21.642Z,1.17
2022-09-20T15:14:49.164Z,0.80
2022-09-20T15:17:19.475Z,1.00
2022-09-20T15:19:47.854Z,1.42
2022-09-20T15:22:15.670Z,2.58
2022-09-20T15:24:43.069Z,1.67
2022-09-20T15:27:12.298Z,4.07
2022-09-20T15:29:39.463Z,3.17
2022-09-20T15:32:10.470Z,4.85
2022-09-20T15:34:37.457Z,2.60
2022-09-20T15:37:04.944Z,5.57
2022-09-20T15:39:31.860Z,8.18
2022-09-20T15:41:58.790Z,5.82
2022-09-20T15:44:25.827Z,2.42
2022-09-20T15:46:53.665Z,2.55
2022-09-20T15:49:21.732Z,2.47
2022-09-20T15:51:48.726Z,1.30
2022-09-20T15:54:15.976Z,4.15
2022-09-20T15:56:43.210Z,2.67
2022-09-20T15:59:13.432Z,3.17
2022-09-20T16:01:43.506Z,2.03
2022-09-20T16:04:12.940Z,1.70
2022-09-20T16:06:42.894Z,3.22
2022-09-20T16:09:10.786Z,4.35
2022-09-20T16:11:39.072Z,1.38
2022-09-20T16:14:06.936Z,1.88
2022-09-20T16:16:39.918Z,2.55
2022-09-20T16:19:20.308Z,2.33
2022-09-20T16:21:56.606Z,1.73
2022-09-20T16:24:34.465Z,2.50
2022-09-20T16:27:05.181Z,7.80
2022-09-20T16:29:33.622Z,3.25
2022-09-20T16:32:03.848Z,1.80
2022-09-20T16:34:36.782Z,3.80
2022-09-20T16:37:12.335Z,3.28
2022-09-20T16:39:40.478Z,4.90
2022-09-20T16:42:09.368Z,3.92
2022-09-20T16:44:39.094Z,4.80
2022-09-20T16:47:10.635Z,4.75
2022-09-20T16:49:38.435Z,2.60
2022-09-20T16:52:07.977Z,3.53
2022-09-20T16:54:35.332Z,4.47
2022-09-20T16:57:02.808Z,3.50
2022-09-20T16:59:30.046Z,5.50
2022-09-20T17:01:57.795Z,2.80
2022-09-20T17:04:25.479Z,2.97
2022-09-20T17:06:53.230Z,3.53
2022-09-20T17:09:20.422Z,4.85
2022-09-20T17:11:50.395Z,5.03
2022-09-20T17:14:20.526Z,7.68
2022-09-20T17:16:48.890Z,7.00
2022-09-20T17:19:19.534Z,10.02
2022-09-20T17:21:50.859Z,6.30
2022-09-20T17:24:23.085Z,7.22
2022-09-20T17:26:52.226Z,10.10
2022-09-20T17:29:21.535Z,8.15
2022-09-20T17:31:55.668Z,11.55
2022-09-20T17:34:24.708Z,9.23
2022-09-20T17:36:52.519Z,6.47
2022-09-20T17:39:19.695Z,6.30
2022-09-20T17:41:49.217Z,6.80
2022-09-20T17:44:16.909Z,9.48
2022-09-20T17:46:46.808Z,7.03
2022-09-20T17:49:20.415Z,10.27
2022-09-20T17:51:53.285Z,5.97
2022-09-20T17:54:22.029Z,4.45
2022-09-20T17:56:51.606Z,4.60
2022-09-20T17:59:20.049Z,4.60
2022-09-20T18:01:50.054Z,7.75
2022-09-20T18:04:17.734Z,13.43
2022-09-20T18:06:50.706Z,14.57
2022-09-20T18:09:24.810Z,10.05
2022-09-20T18:11:54.315Z,3.40
2022-09-20T18:14:27.707Z,6.57
2022-09-20T18:17:01.037Z,5.70
2022-09-20T18:19:33.183Z,4.28
2022-09-20T18:22:01.922Z,5.97
2022-09-20T18:24:29.995Z,6.28
2022-09-20T18:26:56.975Z,4.03
2022-09-20T18:29:24.861Z,5.43
2022-09-20T18:31:58.092Z,4.45
2022-09-20T18:34:33.855Z,6.40
2022-09-20T18:37:02.966Z,8.80
2022-09-20T18:39:32.727Z,6.72
2022-09-20T18:42:00.429Z,6.63
2022-09-20T18:44:34.105Z,6.32
2022-09-20T18:47:03.366Z,5.47
2022-09-20T18:49:30.862Z,8.45
2022-09-20T18:51:58.527Z,8.70
2022-09-20T18:54:25.830Z,7.95
2022-09-20T18:56:53.988Z,6.65
2022-09-20T18:59:24.444Z,5.78
2022-09-20T19:01:54.225Z,7.15
2022-09-20T19:04:46.209Z,7.50
2022-09-20T19:07:28.201Z,8.10
2022-09-20T19:10:08.547Z,7.28
2022-09-20T19:12:50.455Z,6.55
2022-09-20T19:15:32.053Z,9.93
2022-09-20T19:18:56.374Z,9.27
2022-09-20T19:22:08.243Z,8.02
2022-09-20T19:24:50.121Z,8.20
2022-09-20T19:27:17.462Z,8.98
2022-09-20T19:29:44.983Z,10.18
2022-09-20T19:32:21.248Z,10.68
2022-09-20T19:34:55.918Z,9.70
2022-09-20T19:38:03.637Z,10.27
2022-09-20T19:41:02.692Z,14.77
2022-09-20T19:44:00.112Z,9.23
2022-09-20T19:46:52.715Z,7.68
2022-09-20T19:49:25.201Z,8.95
2022-09-20T19:51:52.518Z,7.63
2022-09-20T19:54:19.731Z,6.88
2022-09-20T19:56:59.355Z,7.80
2022-09-20T19:59:28.064Z,6.70
2022-09-20T20:01:56.534Z,7.53
2022-09-20T20:04:24.132Z,9.63
2022-09-20T20:07:08.281Z,8.85
2022-09-20T20:09:58.684Z,8.48
2022-09-20T20:12:59.054Z,5.97
2022-09-20T20:15:41.283Z,7.45
2022-09-20T20:18:27.836Z,8.63
2022-09-20T20:20:56.873Z,7.63
2022-09-20T20:23:53.357Z,6.88
2022-09-20T20:26:26.775Z,7.97
2022-09-20T20:28:54.333Z,8.15
2022-09-20T20:31:21.723Z,7.32
2022-09-20T20:33:49.455Z,8.13
2022-09-20T20:36:17.608Z,8.13
2022-09-20T20:38:49.699Z,8.95
2022-09-20T20:41:20.420Z,10.98
2022-09-20T20:43:48.597Z,9.45
2022-09-20T20:46:20.203Z,6.60
2022-09-20T20:48:47.892Z,8.52
2022-09-20T20:51:22.937Z,7.40
2022-09-20T20:53:54.980Z,7.13
2022-09-20T20:56:30.077Z,7.35
2022-09-20T20:59:01.164Z,7.60
2022-09-20T21:01:33.831Z,7.40
2022-09-20T21:04:01.768Z,7.75
2022-09-20T21:06:32.142Z,9.90
2022-09-20T21:08:59.613Z,6.35
2022-09-20T21:11:29.967Z,5.40
2022-09-20T21:13:59.781Z,8.07
2022-09-20T21:16:31.091Z,7.00
2022-09-20T21:18:58.954Z,7.05
2022-09-20T21:21:33.434Z,9.03
2022-09-20T21:24:06.488Z,7.70
2022-09-20T21:26:35.375Z,7.43
2022-09-20T21:29:05.761Z,6.85
2022-09-20T21:31:36.791Z,8.33
2022-09-20T21:34:10.153Z,8.48
2022-09-20T21:36:39.251Z,9.27
2022-09-20T21:39:06.649Z,7.03
2022-09-20T21:41:36.911Z,7.32
2022-09-20T21:44:05.891Z,7.30
2022-09-20T21:46:37.170Z,7.60
2022-09-20T21:49:06.171Z,8.00
2022-09-20T21:51:34.163Z,8.40
2022-09-20T21:54:02.341Z,9.43
2022-09-20T21:56:33.363Z,8.57
2022-09-20T21:59:03.749Z,6.82
2022-09-20T22:01:35.425Z,9.10
2022-09-20T22:04:11.634Z,6.67
2022-09-20T22:06:44.564Z,6.47
2022-09-20T22:09:17.111Z,9.90
2022-09-20T22:11:47.547Z,7.23
2022-09-20T22:14:18.230Z,10.10
2022-09-20T22:16:47.056Z,7.30
2022-09-20T22:19:16.966Z,6.73
2022-09-20T22:21:47.870Z,8.73
2022-09-20T22:24:18.810Z,7.30
2022-09-20T22:26:49.604Z,6.17
2022-09-20T22:29:17.787Z,7.40
2022-09-20T22:31:46.736Z,7.10
2022-09-20T22:34:17.452Z,6.83
2022-09-20T22:36:45.353Z,10.17
2022-09-20T22:39:13.127Z,10.10
2022-09-20T22:41:41.529Z,8.50
2022-09-20T22:44:09.302Z,7.90
2022-09-20T22:46:37.170Z,6.40
2022-09-20T22:49:09.205Z,7.38
2022-09-20T22:51:37.574Z,7.83
2022-09-20T22:54:08.242Z,7.10
2022-09-20T22:56:36.313Z,12.07
2022-09-20T22:59:13.138Z,10.27
2022-09-20T23:01:45.998Z,7.33
2022-09-20T23:04:18.969Z,5.73
2022-09-20T23:06:49.301Z,10.30
2022-09-20T23:09:18.176Z,8.67
2022-09-20T23:11:45.785Z,7.93
2022-09-20T23:14:16.542Z,7.20
2022-09-20T23:16:43.983Z,7.30
2022-09-20T23:19:12.902Z,8.70
2022-09-20T23:21:41.777Z,7.33
2022-09-20T23:24:12.519Z,10.77
2022-09-20T23:26:41.660Z,6.60
2022-09-20T23:29:16.496Z,6.90
2022-09-20T23:31:46.869Z,7.40
2022-09-20T23:34:15.976Z,10.00
2022-09-20T23:36:44.429Z,8.03
2022-09-20T23:39:11.995Z,8.80
2022-09-20T23:41:39.484Z,6.10
2022-09-20T23:44:07.415Z,9.30
2022-09-20T23:46:34.828Z,10.27
2022-09-20T23:49:03.269Z,6.83
2022-09-20T23:51:30.802Z,10.07
2022-09-20T23:53:58.392Z,7.68
2022-09-20T23:56:26.462Z,7.83
2022-09-20T23:58:54.161Z,8.03
